KCTY/CTY METAR and TAF weather

Enter ICAO airport designator
Station Type Date Time Source
KCTY METAR 2018/06/25 02:15 UTC NOAA

KCTY 250215Z AUTO 15006KT 10SM VCTS CLR 26/22 A3007 RMK AO2 LTG DSNT S AND SW T02620219


Station Type Date Time Source
KCTY Decoded METAR 2018/06/25 02:15 UTC NOAA

CROSS CITY AIRPORT, FL, United States (KCTY) 29-38N 083-06W 12M
Jun 24, 2018 - 10:15 PM EDT / 2018.06.25 0215 UTC
Wind: from the SSE (150 degrees) at 7 MPH (6 KT):0
Visibility: 10 mile(s):0
Sky conditions: clear
Weather: thunder in the vicinity; Lightning observed
Temperature: 79.2 F (26.2 C)
Dew Point: 71.4 F (21.9 C)
Relative Humidity: 77%
Pressure (altimeter): 30.07 in. Hg (1018 hPa)
ob: KCTY 250215Z AUTO 15006KT 10SM VCTS CLR 26/22 A3007 RMK AO2 LTG DSNT S AND SW T02620219
cycle: 2

Station Type Date Time Source
KCTY TAF UTC NOAA

Error!


Example: see airport list